Radiance Of The Seas — C6SE7 — position and weather

sailwx.info

Track history (hours):
 
Tides and Currents Weather Stations Pressure Air Temp Water Temp Dewpoint Dewpoint Depression Visibility Wind Speed Wind Dir Waves Ship Positions

Radiance Of The Seas

Operator: Royal Caribbean Cruises Ltd

Last reported at 2016-Jul-24 11:33 UTC. Time now 2016-Jul-28 02:46 UTC.
Position N 58°13' W 135°30'.

Type: Passenger vessel. MMSI: 311319000.

Date/timePositionNaut miles runAvg speedWind from/ knotsBaromVisibWave heightAir tempDewpointWater temp
2016-Jul-24 11:33N 58°13' W 135°30'1817.7
2016-Jul-24 10:33N 58°20' W 136°01'  
2016-Jul-21 05:33N 58°19' W 135°56'  
2016-Jul-16 17:25N 51°04' W 128°07'1416.0
2016-Jul-16 16:33N 50°59' W 127°46'1414.0
2016-Jul-16 15:33N 50°50' W 127°29'1615.6
2016-Jul-16 14:33N 50°44' W 127°06'7116.0
2016-Jul-16 10:08N 50°17' W 125°24'915.3
2016-Jul-16 09:34N 50°08' W 125°21'1313.3
2016-Jul-16 08:33N 49°57' W 125°09'1515.3
2016-Jul-16 07:33N 49°47' W 124°51'1615.8
2016-Jul-16 06:33N 49°36' W 124°35'3015.2
2016-Jul-16 04:33N 49°21' W 123°54'1615.8
2016-Jul-16 03:33N 49°19' W 123°30'1514.6
2016-Jul-16 02:33N 49°19' W 123°08'1 1.4
2016-Jul-16 01:33N 49°17' W 123°07'0 0.0
2016-Jul-16 00:33N 49°17' W 123°07'0 0.0
2016-Jul-15 23:33N 49°17' W 123°07'0 0.0
2016-Jul-15 22:33N 49°17' W 123°07'0 0.0
2016-Jul-15 21:33N 49°17' W 123°07'0 0.0
2016-Jul-15 20:33N 49°17' W 123°07'0 0.0
2016-Jul-15 19:33N 49°17' W 123°07'0 0.0
2016-Jul-15 18:33N 49°17' W 123°07'0 0.0
2016-Jul-15 17:33N 49°17' W 123°07'0 0.0
2016-Jul-15 16:33N 49°17' W 123°07'0 0.0
2016-Jul-15 15:33N 49°17' W 123°07'0 0.0
2016-Jul-15 14:33N 49°17' W 123°07'1 1.0
2016-Jul-15 13:33N 49°18' W 123°07'10 9.9
2016-Jul-15 12:33N 49°19' W 123°22'1010.0
2016-Jul-15 11:34N 49°19' W 123°37'1010.4
2016-Jul-15 10:33N 49°21' W 123°53'1110.7
2016-Jul-15 09:33N 49°23' W 124°09'1010.2
2016-Jul-15 08:32N 49°28' W 124°23'1010.5
2016-Jul-15 07:33N 49°35' W 124°35'1110.7
2016-Jul-15 06:33N 49°43' W 124°47'1111.0
2016-Jul-15 05:33N 49°50' W 124°59'1110.6
2016-Jul-15 04:34N 49°58' W 125°10'1414.2
2016-Jul-15 03:33N 50°10' W 125°22'4815.8
2016-Jul-15 00:32N 50°30' W 126°30'1414.4
2016-Jul-14 23:33N 50°38' W 126°48'1717.4
2016-Jul-14 22:33N 50°46' W 127°13'1717.2
2016-Jul-14 21:33N 50°53' W 127°37'1515.4
2016-Jul-14 20:33N 51°02' W 127°57'  
Track history (hours):
 
Tides and Currents Weather Stations Pressure Air Temp Water Temp Dewpoint Dewpoint Depression Visibility Wind Speed Wind Dir Waves Ship Positions

Radiance Of The Seas

Operator: Royal Caribbean Cruises Ltd

Last reported at 2016-Jul-24 11:33 UTC. Time now 2016-Jul-28 02:46 UTC.
Position N 58°13' W 135°30'.

Type: Passenger vessel. MMSI: 311319000.

Date/timePositionNaut miles runAvg speedWind from/ knotsBaromVisibWave heightAir tempDewpointWater temp
2016-Jul-24 11:33N 58°13' W 135°30'1817.7
2016-Jul-24 10:33N 58°20' W 136°01'  
2016-Jul-21 05:33N 58°19' W 135°56'  
2016-Jul-16 17:25N 51°04' W 128°07'1416.0
2016-Jul-16 16:33N 50°59' W 127°46'1414.0
2016-Jul-16 15:33N 50°50' W 127°29'1615.6
2016-Jul-16 14:33N 50°44' W 127°06'7116.0
2016-Jul-16 10:08N 50°17' W 125°24'915.3
2016-Jul-16 09:34N 50°08' W 125°21'1313.3
2016-Jul-16 08:33N 49°57' W 125°09'1515.3
2016-Jul-16 07:33N 49°47' W 124°51'1615.8
2016-Jul-16 06:33N 49°36' W 124°35'3015.2
2016-Jul-16 04:33N 49°21' W 123°54'1615.8
2016-Jul-16 03:33N 49°19' W 123°30'1514.6
2016-Jul-16 02:33N 49°19' W 123°08'1 1.4
2016-Jul-16 01:33N 49°17' W 123°07'0 0.0
2016-Jul-16 00:33N 49°17' W 123°07'0 0.0
2016-Jul-15 23:33N 49°17' W 123°07'0 0.0
2016-Jul-15 22:33N 49°17' W 123°07'0 0.0
2016-Jul-15 21:33N 49°17' W 123°07'0 0.0
2016-Jul-15 20:33N 49°17' W 123°07'0 0.0
2016-Jul-15 19:33N 49°17' W 123°07'0 0.0
2016-Jul-15 18:33N 49°17' W 123°07'0 0.0
2016-Jul-15 17:33N 49°17' W 123°07'0 0.0
2016-Jul-15 16:33N 49°17' W 123°07'0 0.0
2016-Jul-15 15:33N 49°17' W 123°07'0 0.0
2016-Jul-15 14:33N 49°17' W 123°07'1 1.0
2016-Jul-15 13:33N 49°18' W 123°07'10 9.9
2016-Jul-15 12:33N 49°19' W 123°22'1010.0
2016-Jul-15 11:34N 49°19' W 123°37'1010.4
2016-Jul-15 10:33N 49°21' W 123°53'1110.7
2016-Jul-15 09:33N 49°23' W 124°09'1010.2
2016-Jul-15 08:32N 49°28' W 124°23'1010.5
2016-Jul-15 07:33N 49°35' W 124°35'1110.7
2016-Jul-15 06:33N 49°43' W 124°47'1111.0
2016-Jul-15 05:33N 49°50' W 124°59'1110.6
2016-Jul-15 04:34N 49°58' W 125°10'1414.2
2016-Jul-15 03:33N 50°10' W 125°22'4815.8
2016-Jul-15 00:32N 50°30' W 126°30'1414.4
2016-Jul-14 23:33N 50°38' W 126°48'1717.4
2016-Jul-14 22:33N 50°46' W 127°13'1717.2
2016-Jul-14 21:33N 50°53' W 127°37'1515.4
2016-Jul-14 20:33N 51°02' W 127°57'  

Dump ship's entire track history